KLAF/LAF METAR and TAF weather

Enter ICAO airport designator
Station Type Date Time Source
KLAF METAR 2021/09/16 10:54 UTC NOAA

KLAF 161054Z 10003KT 10SM CLR 12/11 A3010 RMK AO2 SLP189 T01220106 $


Station Type Date Time Source
KLAF Decoded METAR 2021/09/16 10:54 UTC NOAA

LAFAYETTE PURDUE UNIV AIRPORT , IN, United States (KLAF) 40-25N 86-57W 182M
Sep 16, 2021 - 06:54 AM EDT / 2021.09.16 1054 UTC
Wind: from the E (100 degrees) at 3 MPH (3 KT):0
Visibility: 10 mile(s):0
Sky conditions: clear
Temperature: 54.0 F (12.2 C)
Dew Point: 51.1 F (10.6 C)
Relative Humidity: 89%
Pressure (altimeter): 30.1 in. Hg (1019 hPa)
ob: KLAF 161054Z 10003KT 10SM CLR 12/11 A3010 RMK AO2 SLP189 T01220106
cycle: 11

Station Type Date Time Source
KLAF TAF 2021/09/16 12:22 UTC NOAA

TAF KLAF 161120Z 1612/1712 00000KT P6SM SKC
FM161400 12005KT P6SM FEW060
AMD LTD TO CLD VIS AND WIND TIL 161300

Example: see airport list